Peacehaven, United Kingdom
Current Conditions -  °F | °C
As of 6:50 AM on Sunday 26 Oct 2014 (Local Time) from EGKK Reporting Station
Broken Clouds Broken Clouds  
Wind Chill: 13°   Ceiling: 3000
Heat Index: 13°   Visibility: 6mi
Dew Point:   Wind: 3mph
Humidity: 77%   Direction: NA
Pressure: 30.15"   Gusts: NA
Location:  50.79°N, 0.02°W
Report Text: EGKK 260550Z VRB03KT 9999 BKN030 13/09 Q1021
Loading
Personal Weather Stations






























Interactive Weather Map
Tropical Storm Tracking
New forecast layout! Learn more

10-Day Weather Forecast

Advertisements
Track Severe Weather on mobile